sensor_id;sensor_type;location;lat;lon;timestamp;pressure;altitude;pressure_sealevel;temperature;humidity
56374;BME280;58212;47.034;7.376;2023-07-28T00:00:54;94834.28;;;17.76;66.96
56374;BME280;58212;47.034;7.376;2023-07-28T00:03:21;94819.41;;;17.70;67.07
56374;BME280;58212;47.034;7.376;2023-07-28T00:05:47;94825.25;;;17.72;66.69
56374;BME280;58212;47.034;7.376;2023-07-28T00:08:14;94830.59;;;17.72;66.54
56374;BME280;58212;47.034;7.376;2023-07-28T00:10:41;94830.75;;;17.81;65.54
56374;BME280;58212;47.034;7.376;2023-07-28T00:13:08;94829.38;;;17.83;65.63
56374;BME280;58212;47.034;7.376;2023-07-28T00:15:36;94825.91;;;17.83;65.99
56374;BME280;58212;47.034;7.376;2023-07-28T00:18:03;94825.97;;;17.78;66.58
56374;BME280;58212;47.034;7.376;2023-07-28T00:20:29;94828.94;;;17.76;66.45
56374;BME280;58212;47.034;7.376;2023-07-28T00:22:56;94828.94;;;17.76;66.45
56374;BME280;58212;47.034;7.376;2023-07-28T00:25:24;94830.03;;;17.75;66.25
56374;BME280;58212;47.034;7.376;2023-07-28T00:27:51;94823.91;;;17.75;66.21
56374;BME280;58212;47.034;7.376;2023-07-28T00:30:17;94832.28;;;17.68;66.32
56374;BME280;58212;47.034;7.376;2023-07-28T00:32:45;94824.53;;;17.67;66.59
56374;BME280;58212;47.034;7.376;2023-07-28T00:35:12;94818.59;;;17.70;66.10
56374;BME280;58212;47.034;7.376;2023-07-28T00:37:39;94823.09;;;17.74;65.56
56374;BME280;58212;47.034;7.376;2023-07-28T00:40:07;94827.78;;;17.82;64.98
56374;BME280;58212;47.034;7.376;2023-07-28T00:42:33;94829.69;;;17.82;65.21
56374;BME280;58212;47.034;7.376;2023-07-28T00:45:00;94815.72;;;17.85;65.28
56374;BME280;58212;47.034;7.376;2023-07-28T00:47:27;94825.97;;;17.96;64.97
56374;BME280;58212;47.034;7.376;2023-07-28T00:49:55;94826.25;;;17.95;65.19
56374;BME280;58212;47.034;7.376;2023-07-28T00:52:22;94828.44;;;17.93;65.78
56374;BME280;58212;47.034;7.376;2023-07-28T00:54:48;94828.66;;;17.96;65.98
56374;BME280;58212;47.034;7.376;2023-07-28T00:57:15;94827.47;;;18.02;65.26
56374;BME280;58212;47.034;7.376;2023-07-28T00:59:44;94825.59;;;18.03;65.65
56374;BME280;58212;47.034;7.376;2023-07-28T01:02:11;94843.84;;;18.01;65.63
56374;BME280;58212;47.034;7.376;2023-07-28T01:04:38;94838.69;;;18.04;65.89
56374;BME280;58212;47.034;7.376;2023-07-28T01:07:09;94846.81;;;17.99;65.70
56374;BME280;58212;47.034;7.376;2023-07-28T01:09:41;94845.34;;;18.07;65.36
56374;BME280;58212;47.034;7.376;2023-07-28T01:12:09;94848.22;;;18.11;65.84
56374;BME280;58212;47.034;7.376;2023-07-28T01:14:36;94855.47;;;18.10;66.27
56374;BME280;58212;47.034;7.376;2023-07-28T01:17:03;94859.38;;;17.99;66.65
56374;BME280;58212;47.034;7.376;2023-07-28T01:19:32;94852.44;;;17.98;66.70
56374;BME280;58212;47.034;7.376;2023-07-28T01:22:11;94860.78;;;17.96;66.95
56374;BME280;58212;47.034;7.376;2023-07-28T01:25:00;94862.94;;;17.94;67.44
56374;BME280;58212;47.034;7.376;2023-07-28T01:27:32;94866.84;;;17.83;67.26
56374;BME280;58212;47.034;7.376;2023-07-28T01:29:59;94874.53;;;17.71;67.67
56374;BME280;58212;47.034;7.376;2023-07-28T01:32:26;94878.06;;;17.67;67.60
56374;BME280;58212;47.034;7.376;2023-07-28T01:34:53;94881.38;;;17.58;68.13
56374;BME280;58212;47.034;7.376;2023-07-28T01:37:19;94876.56;;;17.55;68.08
56374;BME280;58212;47.034;7.376;2023-07-28T01:39:46;94880.88;;;17.56;67.88
56374;BME280;58212;47.034;7.376;2023-07-28T01:42:13;94881.22;;;17.50;67.91
56374;BME280;58212;47.034;7.376;2023-07-28T01:44:41;94885.00;;;17.44;68.25
56374;BME280;58212;47.034;7.376;2023-07-28T01:47:08;94887.69;;;17.44;68.44
56374;BME280;58212;47.034;7.376;2023-07-28T01:49:35;94895.22;;;17.42;68.32
56374;BME280;58212;47.034;7.376;2023-07-28T01:52:04;94903.59;;;17.35;68.56
56374;BME280;58212;47.034;7.376;2023-07-28T01:54:31;94899.94;;;17.26;68.67
56374;BME280;58212;47.034;7.376;2023-07-28T01:56:58;94907.78;;;17.18;68.80
56374;BME280;58212;47.034;7.376;2023-07-28T01:59:25;94900.00;;;16.97;69.43
56374;BME280;58212;47.034;7.376;2023-07-28T02:01:53;94899.88;;;17.07;69.39
56374;BME280;58212;47.034;7.376;2023-07-28T02:04:20;94903.69;;;17.01;69.34
56374;BME280;58212;47.034;7.376;2023-07-28T02:06:47;94913.88;;;16.99;69.34
56374;BME280;58212;47.034;7.376;2023-07-28T02:09:13;94916.88;;;16.93;69.76
56374;BME280;58212;47.034;7.376;2023-07-28T02:11:40;94913.38;;;16.97;69.74
56374;BME280;58212;47.034;7.376;2023-07-28T02:14:07;94913.81;;;17.04;69.26
56374;BME280;58212;47.034;7.376;2023-07-28T02:16:34;94917.22;;;17.10;68.59
56374;BME280;58212;47.034;7.376;2023-07-28T02:19:02;94914.56;;;17.10;68.31
56374;BME280;58212;47.034;7.376;2023-07-28T02:21:29;94917.59;;;17.27;66.84
56374;BME280;58212;47.034;7.376;2023-07-28T02:23:56;94912.25;;;17.27;67.12
56374;BME280;58212;47.034;7.376;2023-07-28T02:26:23;94914.63;;;17.29;67.18
56374;BME280;58212;47.034;7.376;2023-07-28T02:28:49;94920.59;;;17.68;64.73
56374;BME280;58212;47.034;7.376;2023-07-28T02:31:17;94912.13;;;18.17;62.10
56374;BME280;58212;47.034;7.376;2023-07-28T02:33:43;94927.41;;;18.35;61.60
56374;BME280;58212;47.034;7.376;2023-07-28T02:36:11;94935.81;;;18.10;63.02
56374;BME280;58212;47.034;7.376;2023-07-28T02:38:38;94929.88;;;18.13;62.04
56374;BME280;58212;47.034;7.376;2023-07-28T02:41:05;94931.69;;;18.18;63.52
56374;BME280;58212;47.034;7.376;2023-07-28T02:43:32;94924.44;;;18.37;62.52
56374;BME280;58212;47.034;7.376;2023-07-28T02:46:00;94915.63;;;18.50;61.79
56374;BME280;58212;47.034;7.376;2023-07-28T02:48:26;94918.50;;;18.40;62.13
56374;BME280;58212;47.034;7.376;2023-07-28T02:50:53;94914.41;;;18.42;62.09
56374;BME280;58212;47.034;7.376;2023-07-28T02:53:21;94907.78;;;18.40;62.45
56374;BME280;58212;47.034;7.376;2023-07-28T02:55:48;94916.09;;;18.38;62.92
56374;BME280;58212;47.034;7.376;2023-07-28T02:58:15;94920.97;;;18.18;64.06
56374;BME280;58212;47.034;7.376;2023-07-28T03:00:43;94921.56;;;17.96;65.23
56374;BME280;58212;47.034;7.376;2023-07-28T03:03:15;94923.38;;;18.00;65.10
56374;BME280;58212;47.034;7.376;2023-07-28T03:05:42;94923.44;;;17.95;65.04
56374;BME280;58212;47.034;7.376;2023-07-28T03:08:24;94915.66;;;18.31;63.79
56374;BME280;58212;47.034;7.376;2023-07-28T03:10:56;94918.06;;;18.51;62.82
56374;BME280;58212;47.034;7.376;2023-07-28T03:13:23;94931.09;;;18.58;62.37
56374;BME280;58212;47.034;7.376;2023-07-28T03:15:49;94936.97;;;18.41;63.92
56374;BME280;58212;47.034;7.376;2023-07-28T03:18:19;94944.25;;;18.36;63.60
56374;BME280;58212;47.034;7.376;2023-07-28T03:20:46;94938.97;;;18.49;63.04
56374;BME280;58212;47.034;7.376;2023-07-28T03:23:13;94927.88;;;18.75;61.44
56374;BME280;58212;47.034;7.376;2023-07-28T03:25:41;94919.13;;;18.83;61.99
56374;BME280;58212;47.034;7.376;2023-07-28T03:28:08;94922.34;;;18.85;61.45
56374;BME280;58212;47.034;7.376;2023-07-28T03:30:35;94924.69;;;18.86;62.04
56374;BME280;58212;47.034;7.376;2023-07-28T03:33:02;94919.34;;;18.86;61.78
56374;BME280;58212;47.034;7.376;2023-07-28T03:35:28;94918.50;;;18.72;62.94
56374;BME280;58212;47.034;7.376;2023-07-28T03:38:07;94927.53;;;18.63;63.83
56374;BME280;58212;47.034;7.376;2023-07-28T03:40:34;94921.88;;;18.45;64.67
56374;BME280;58212;47.034;7.376;2023-07-28T03:43:03;94922.69;;;18.27;66.76
56374;BME280;58212;47.034;7.376;2023-07-28T03:45:30;94924.28;;;18.10;67.13
56374;BME280;58212;47.034;7.376;2023-07-28T03:47:57;94922.78;;;18.03;67.70
56374;BME280;58212;47.034;7.376;2023-07-28T03:50:23;94937.69;;;17.91;68.63
56374;BME280;58212;47.034;7.376;2023-07-28T03:52:51;94934.34;;;17.99;67.15
56374;BME280;58212;47.034;7.376;2023-07-28T03:55:18;94922.13;;;18.12;65.62
56374;BME280;58212;47.034;7.376;2023-07-28T03:57:45;94928.72;;;18.19;66.50
56374;BME280;58212;47.034;7.376;2023-07-28T04:00:14;94926.97;;;18.28;64.91
56374;BME280;58212;47.034;7.376;2023-07-28T04:02:41;94931.53;;;18.28;66.76
56374;BME280;58212;47.034;7.376;2023-07-28T04:05:07;94930.75;;;18.09;67.45
56374;BME280;58212;47.034;7.376;2023-07-28T04:07:34;94927.94;;;18.00;68.97
56374;BME280;58212;47.034;7.376;2023-07-28T04:10:01;94924.72;;;17.98;69.33
56374;BME280;58212;47.034;7.376;2023-07-28T04:12:28;94910.13;;;17.90;69.54
56374;BME280;58212;47.034;7.376;2023-07-28T04:14:55;94918.16;;;17.90;69.24
56374;BME280;58212;47.034;7.376;2023-07-28T04:17:23;94926.09;;;17.95;69.24
56374;BME280;58212;47.034;7.376;2023-07-28T04:19:50;94916.19;;;17.96;68.82
56374;BME280;58212;47.034;7.376;2023-07-28T04:22:17;94915.03;;;18.02;69.49
56374;BME280;58212;47.034;7.376;2023-07-28T04:24:47;94920.97;;;17.99;69.16
56374;BME280;58212;47.034;7.376;2023-07-28T04:27:14;94921.78;;;18.18;68.39
56374;BME280;58212;47.034;7.376;2023-07-28T04:29:42;94926.53;;;18.21;68.45
56374;BME280;58212;47.034;7.376;2023-07-28T04:32:11;94914.81;;;18.17;68.77
56374;BME280;58212;47.034;7.376;2023-07-28T04:34:39;94913.88;;;18.08;69.50
56374;BME280;58212;47.034;7.376;2023-07-28T04:37:11;94918.88;;;18.33;66.98
56374;BME280;58212;47.034;7.376;2023-07-28T04:39:49;94922.03;;;18.54;66.66
56374;BME280;58212;47.034;7.376;2023-07-28T04:42:16;94932.09;;;18.62;64.88
56374;BME280;58212;47.034;7.376;2023-07-28T04:44:45;94916.16;;;18.71;64.55
56374;BME280;58212;47.034;7.376;2023-07-28T04:47:13;94930.31;;;18.71;66.12
56374;BME280;58212;47.034;7.376;2023-07-28T04:49:42;94922.38;;;18.66;65.61
56374;BME280;58212;47.034;7.376;2023-07-28T04:52:08;94920.19;;;18.68;66.33
56374;BME280;58212;47.034;7.376;2023-07-28T04:54:57;94932.31;;;18.66;67.05
56374;BME280;58212;47.034;7.376;2023-07-28T04:57:24;94932.75;;;18.54;68.36
56374;BME280;58212;47.034;7.376;2023-07-28T04:59:50;94940.94;;;18.44;69.09
56374;BME280;58212;47.034;7.376;2023-07-28T05:02:18;94943.25;;;18.32;70.07
56374;BME280;58212;47.034;7.376;2023-07-28T05:04:46;94935.78;;;18.47;68.95
56374;BME280;58212;47.034;7.376;2023-07-28T05:07:13;94942.22;;;18.46;69.48
56374;BME280;58212;47.034;7.376;2023-07-28T05:09:40;94948.72;;;18.27;70.71
56374;BME280;58212;47.034;7.376;2023-07-28T05:12:08;94949.47;;;18.27;71.23
56374;BME280;58212;47.034;7.376;2023-07-28T05:14:42;94950.50;;;18.13;71.69
56374;BME280;58212;47.034;7.376;2023-07-28T05:17:10;94955.06;;;18.12;71.87
56374;BME280;58212;47.034;7.376;2023-07-28T05:19:58;94951.44;;;18.22;71.51
56374;BME280;58212;47.034;7.376;2023-07-28T05:22:41;94950.00;;;18.29;71.28
56374;BME280;58212;47.034;7.376;2023-07-28T05:25:08;94950.06;;;18.24;71.46
56374;BME280;58212;47.034;7.376;2023-07-28T05:27:39;94953.53;;;18.43;71.27
56374;BME280;58212;47.034;7.376;2023-07-28T05:30:07;94951.50;;;18.54;70.66
56374;BME280;58212;47.034;7.376;2023-07-28T05:32:34;94950.84;;;18.43;71.02
56374;BME280;58212;47.034;7.376;2023-07-28T05:35:14;94947.53;;;19.98;66.06
56374;BME280;58212;47.034;7.376;2023-07-28T05:37:41;94945.59;;;20.12;65.94
56374;BME280;58212;47.034;7.376;2023-07-28T05:40:10;94946.50;;;20.08;65.23
56374;BME280;58212;47.034;7.376;2023-07-28T05:42:37;94942.53;;;19.23;68.22
56374;BME280;58212;47.034;7.376;2023-07-28T05:45:04;94948.00;;;20.14;65.64
56374;BME280;58212;47.034;7.376;2023-07-28T05:47:31;94944.34;;;22.00;60.79
56374;BME280;58212;47.034;7.376;2023-07-28T05:49:58;94927.06;;;23.59;55.05
56374;BME280;58212;47.034;7.376;2023-07-28T05:52:27;94930.38;;;23.64;53.89
56374;BME280;58212;47.034;7.376;2023-07-28T05:54:53;94927.34;;;23.95;51.06
56374;BME280;58212;47.034;7.376;2023-07-28T05:57:20;94929.91;;;24.83;50.18
56374;BME280;58212;47.034;7.376;2023-07-28T05:59:47;94930.50;;;24.68;50.14
56374;BME280;58212;47.034;7.376;2023-07-28T06:02:14;94939.16;;;25.15;49.12
56374;BME280;58212;47.034;7.376;2023-07-28T06:04:49;94942.09;;;26.03;46.10
56374;BME280;58212;47.034;7.376;2023-07-28T06:07:16;94937.84;;;26.54;43.34
56374;BME280;58212;47.034;7.376;2023-07-28T06:09:44;94936.00;;;25.13;46.08
56374;BME280;58212;47.034;7.376;2023-07-28T06:12:12;94947.53;;;25.22;46.94
56374;BME280;58212;47.034;7.376;2023-07-28T06:14:41;94939.25;;;26.12;44.24
56374;BME280;58212;47.034;7.376;2023-07-28T06:17:10;94951.88;;;24.40;48.22
56374;BME280;58212;47.034;7.376;2023-07-28T06:19:36;94948.22;;;24.65;48.58
56374;BME280;58212;47.034;7.376;2023-07-28T06:22:03;94955.75;;;24.10;50.36
56374;BME280;58212;47.034;7.376;2023-07-28T06:24:34;94958.94;;;24.03;50.44
56374;BME280;58212;47.034;7.376;2023-07-28T06:27:02;94962.94;;;23.04;53.57
56374;BME280;58212;47.034;7.376;2023-07-28T06:29:33;94963.22;;;23.20;53.20
56374;BME280;58212;47.034;7.376;2023-07-28T06:32:00;94977.59;;;22.77;54.83
56374;BME280;58212;47.034;7.376;2023-07-28T06:34:27;94977.22;;;22.19;56.31
56374;BME280;58212;47.034;7.376;2023-07-28T06:36:54;94968.63;;;23.28;54.07
56374;BME280;58212;47.034;7.376;2023-07-28T06:39:21;94973.28;;;22.94;53.07
56374;BME280;58212;47.034;7.376;2023-07-28T06:41:48;94981.16;;;22.04;55.95
56374;BME280;58212;47.034;7.376;2023-07-28T06:44:17;94973.13;;;23.07;52.98
56374;BME280;58212;47.034;7.376;2023-07-28T06:46:45;94974.94;;;23.50;51.76
56374;BME280;58212;47.034;7.376;2023-07-28T06:49:12;94967.00;;;23.82;51.12
56374;BME280;58212;47.034;7.376;2023-07-28T06:51:39;94969.53;;;23.88;50.71
56374;BME280;58212;47.034;7.376;2023-07-28T06:54:06;94968.03;;;23.69;51.53
56374;BME280;58212;47.034;7.376;2023-07-28T06:56:38;94954.44;;;24.16;50.17
56374;BME280;58212;47.034;7.376;2023-07-28T06:59:05;94957.41;;;24.23;50.93
56374;BME280;58212;47.034;7.376;2023-07-28T07:01:34;94959.53;;;24.38;50.86
56374;BME280;58212;47.034;7.376;2023-07-28T07:04:00;94958.56;;;24.43;50.52
56374;BME280;58212;47.034;7.376;2023-07-28T07:06:27;94954.53;;;24.90;49.20
56374;BME280;58212;47.034;7.376;2023-07-28T07:08:54;94966.78;;;25.08;49.27
56374;BME280;58212;47.034;7.376;2023-07-28T07:11:21;94965.69;;;24.89;48.58
56374;BME280;58212;47.034;7.376;2023-07-28T07:13:48;94960.78;;;24.82;49.29
56374;BME280;58212;47.034;7.376;2023-07-28T07:16:15;94963.09;;;24.01;50.28
56374;BME280;58212;47.034;7.376;2023-07-28T07:18:43;94970.09;;;24.31;50.69
56374;BME280;58212;47.034;7.376;2023-07-28T07:21:10;94967.09;;;24.95;48.80
56374;BME280;58212;47.034;7.376;2023-07-28T07:23:37;94975.59;;;24.43;50.29
56374;BME280;58212;47.034;7.376;2023-07-28T07:26:03;94970.53;;;23.74;51.81
56374;BME280;58212;47.034;7.376;2023-07-28T07:28:30;94970.91;;;24.31;50.43
56374;BME280;58212;47.034;7.376;2023-07-28T07:30:57;94975.50;;;24.02;50.96
56374;BME280;58212;47.034;7.376;2023-07-28T07:33:23;94976.84;;;23.41;52.64
56374;BME280;58212;47.034;7.376;2023-07-28T07:35:51;94972.75;;;24.40;50.44
56374;BME280;58212;47.034;7.376;2023-07-28T07:38:18;94973.81;;;25.21;48.56
56374;BME280;58212;47.034;7.376;2023-07-28T07:40:46;94963.53;;;25.15;47.88
56374;BME280;58212;47.034;7.376;2023-07-28T07:43:13;94962.41;;;25.16;49.21
56374;BME280;58212;47.034;7.376;2023-07-28T07:45:44;94974.84;;;24.55;50.99
56374;BME280;58212;47.034;7.376;2023-07-28T07:48:12;94974.47;;;24.86;49.15
56374;BME280;58212;47.034;7.376;2023-07-28T07:50:39;94969.19;;;25.22;48.39
56374;BME280;58212;47.034;7.376;2023-07-28T07:53:09;94973.25;;;24.95;49.08
56374;BME280;58212;47.034;7.376;2023-07-28T07:55:36;94971.97;;;25.13;48.63
56374;BME280;58212;47.034;7.376;2023-07-28T07:58:03;94972.56;;;24.65;49.79
56374;BME280;58212;47.034;7.376;2023-07-28T08:00:30;94984.19;;;24.16;51.79
56374;BME280;58212;47.034;7.376;2023-07-28T08:02:58;94982.13;;;24.63;50.37
56374;BME280;58212;47.034;7.376;2023-07-28T08:05:25;94974.53;;;24.98;48.54
56374;BME280;58212;47.034;7.376;2023-07-28T08:07:53;94978.56;;;24.92;49.61
56374;BME280;58212;47.034;7.376;2023-07-28T08:10:21;94976.56;;;25.01;49.76
56374;BME280;58212;47.034;7.376;2023-07-28T08:12:48;94977.50;;;25.50;49.32
56374;BME280;58212;47.034;7.376;2023-07-28T08:15:18;94980.81;;;25.22;49.96
56374;BME280;58212;47.034;7.376;2023-07-28T08:17:46;94985.16;;;24.82;49.41
56374;BME280;58212;47.034;7.376;2023-07-28T08:20:13;94975.00;;;24.79;50.09
56374;BME280;58212;47.034;7.376;2023-07-28T08:22:41;94974.22;;;25.44;48.16
56374;BME280;58212;47.034;7.376;2023-07-28T08:25:08;94979.16;;;25.30;49.29
56374;BME280;58212;47.034;7.376;2023-07-28T08:27:36;94969.19;;;25.22;48.78
56374;BME280;58212;47.034;7.376;2023-07-28T08:30:04;94966.94;;;24.50;50.74
56374;BME280;58212;47.034;7.376;2023-07-28T08:32:31;94966.78;;;25.08;49.86
56374;BME280;58212;47.034;7.376;2023-07-28T08:34:59;94970.53;;;25.16;49.11
56374;BME280;58212;47.034;7.376;2023-07-28T08:37:27;94973.72;;;25.30;47.70
56374;BME280;58212;47.034;7.376;2023-07-28T08:39:54;94971.78;;;25.18;47.55
56374;BME280;58212;47.034;7.376;2023-07-28T08:42:21;94960.94;;;25.63;47.65
56374;BME280;58212;47.034;7.376;2023-07-28T08:44:49;94964.97;;;25.45;48.31
56374;BME280;58212;47.034;7.376;2023-07-28T08:47:18;94966.03;;;25.32;47.85
56374;BME280;58212;47.034;7.376;2023-07-28T08:49:44;94961.97;;;25.95;45.91
56374;BME280;58212;47.034;7.376;2023-07-28T08:52:15;94966.41;;;25.43;48.06
56374;BME280;58212;47.034;7.376;2023-07-28T08:54:42;94964.34;;;25.97;46.37
56374;BME280;58212;47.034;7.376;2023-07-28T08:57:10;94965.81;;;25.94;45.92
56374;BME280;58212;47.034;7.376;2023-07-28T08:59:37;94954.84;;;25.91;45.63
56374;BME280;58212;47.034;7.376;2023-07-28T09:02:09;94970.69;;;24.99;48.46
56374;BME280;58212;47.034;7.376;2023-07-28T09:04:36;94961.53;;;25.57;47.61
56374;BME280;58212;47.034;7.376;2023-07-28T09:07:04;94964.03;;;25.86;46.27
56374;BME280;58212;47.034;7.376;2023-07-28T09:09:32;94965.72;;;25.79;46.78
56374;BME280;58212;47.034;7.376;2023-07-28T09:11:59;94968.56;;;25.04;47.49
56374;BME280;58212;47.034;7.376;2023-07-28T09:14:26;94958.94;;;25.27;46.69
56374;BME280;58212;47.034;7.376;2023-07-28T09:16:53;94961.63;;;25.72;46.10
56374;BME280;58212;47.034;7.376;2023-07-28T09:19:21;94958.50;;;25.83;46.08
56374;BME280;58212;47.034;7.376;2023-07-28T09:21:57;94967.97;;;25.64;47.05
56374;BME280;58212;47.034;7.376;2023-07-28T09:24:30;94971.53;;;25.11;48.40
56374;BME280;58212;47.034;7.376;2023-07-28T09:26:58;94981.38;;;25.28;48.07
56374;BME280;58212;47.034;7.376;2023-07-28T09:29:26;94974.00;;;25.49;47.60
56374;BME280;58212;47.034;7.376;2023-07-28T09:32:02;94973.53;;;25.47;47.83
56374;BME280;58212;47.034;7.376;2023-07-28T09:34:31;94978.78;;;25.52;47.26
56374;BME280;58212;47.034;7.376;2023-07-28T09:37:00;94965.34;;;25.56;47.18
56374;BME280;58212;47.034;7.376;2023-07-28T09:39:27;94966.41;;;25.75;46.98
56374;BME280;58212;47.034;7.376;2023-07-28T09:41:54;94967.19;;;25.88;45.48
56374;BME280;58212;47.034;7.376;2023-07-28T09:44:24;94963.91;;;25.95;45.90
56374;BME280;58212;47.034;7.376;2023-07-28T09:46:52;94950.31;;;25.58;45.74
56374;BME280;58212;47.034;7.376;2023-07-28T09:49:21;94962.34;;;25.37;46.27
56374;BME280;58212;47.034;7.376;2023-07-28T09:51:53;94965.00;;;25.57;46.05
56374;BME280;58212;47.034;7.376;2023-07-28T09:54:23;94958.06;;;25.48;46.13
56374;BME280;58212;47.034;7.376;2023-07-28T09:56:55;94962.84;;;25.06;47.63
56374;BME280;58212;47.034;7.376;2023-07-28T09:59:28;94968.06;;;25.23;46.66
56374;BME280;58212;47.034;7.376;2023-07-28T10:01:56;94966.63;;;25.38;46.73
56374;BME280;58212;47.034;7.376;2023-07-28T10:04:23;94979.78;;;25.15;46.19
56374;BME280;58212;47.034;7.376;2023-07-28T10:06:52;94968.91;;;25.03;47.39
56374;BME280;58212;47.034;7.376;2023-07-28T10:09:23;94978.69;;;25.28;46.60
56374;BME280;58212;47.034;7.376;2023-07-28T10:11:50;94970.16;;;25.38;47.00
56374;BME280;58212;47.034;7.376;2023-07-28T10:14:25;94963.09;;;25.70;48.23
56374;BME280;58212;47.034;7.376;2023-07-28T10:16:53;94964.06;;;25.41;46.76
56374;BME280;58212;47.034;7.376;2023-07-28T10:19:20;94972.63;;;25.43;48.78
56374;BME280;58212;47.034;7.376;2023-07-28T10:21:47;94976.91;;;25.44;48.00
56374;BME280;58212;47.034;7.376;2023-07-28T10:24:15;94973.81;;;24.89;48.34
56374;BME280;58212;47.034;7.376;2023-07-28T10:26:42;94977.50;;;25.05;48.22
56374;BME280;58212;47.034;7.376;2023-07-28T10:29:10;94974.47;;;24.86;47.87
56374;BME280;58212;47.034;7.376;2023-07-28T10:31:49;94967.81;;;25.16;47.29
56374;BME280;58212;47.034;7.376;2023-07-28T10:34:17;94970.28;;;25.09;46.96
56374;BME280;58212;47.034;7.376;2023-07-28T10:36:44;94975.53;;;24.72;48.12
56374;BME280;58212;47.034;7.376;2023-07-28T10:39:16;94979.09;;;25.06;47.89
56374;BME280;58212;47.034;7.376;2023-07-28T10:42:01;94986.97;;;25.44;46.81
56374;BME280;58212;47.034;7.376;2023-07-28T10:44:28;94980.75;;;25.43;46.83
56374;BME280;58212;47.034;7.376;2023-07-28T10:46:56;94976.06;;;24.87;48.87
56374;BME280;58212;47.034;7.376;2023-07-28T10:49:24;94963.13;;;25.37;48.35
56374;BME280;58212;47.034;7.376;2023-07-28T10:51:51;94967.28;;;25.92;47.63
56374;BME280;58212;47.034;7.376;2023-07-28T10:54:19;94960.84;;;25.96;46.50
56374;BME280;58212;47.034;7.376;2023-07-28T10:56:47;94964.56;;;25.92;47.23
56374;BME280;58212;47.034;7.376;2023-07-28T10:59:15;94959.63;;;26.18;47.45
56374;BME280;58212;47.034;7.376;2023-07-28T11:01:43;94965.25;;;25.89;46.52
56374;BME280;58212;47.034;7.376;2023-07-28T11:04:11;94963.31;;;25.77;47.04
56374;BME280;58212;47.034;7.376;2023-07-28T11:06:41;94964.00;;;25.74;46.35
56374;BME280;58212;47.034;7.376;2023-07-28T11:09:09;94958.91;;;25.60;47.37
56374;BME280;58212;47.034;7.376;2023-07-28T11:11:38;94958.00;;;25.56;47.11
56374;BME280;58212;47.034;7.376;2023-07-28T11:14:07;94950.28;;;25.46;47.53
56374;BME280;58212;47.034;7.376;2023-07-28T11:16:35;94962.91;;;25.30;47.33
56374;BME280;58212;47.034;7.376;2023-07-28T11:19:03;94961.66;;;25.27;47.57
56374;BME280;58212;47.034;7.376;2023-07-28T11:21:30;94946.31;;;25.44;46.93
56374;BME280;58212;47.034;7.376;2023-07-28T11:23:56;94949.19;;;25.59;46.72
56374;BME280;58212;47.034;7.376;2023-07-28T11:26:24;94954.28;;;25.73;47.66
56374;BME280;58212;47.034;7.376;2023-07-28T11:28:52;94958.38;;;25.79;47.94
56374;BME280;58212;47.034;7.376;2023-07-28T11:31:23;94963.44;;;25.68;47.11
56374;BME280;58212;47.034;7.376;2023-07-28T11:33:52;94967.44;;;25.50;47.46
56374;BME280;58212;47.034;7.376;2023-07-28T11:36:22;94967.44;;;25.38;47.33
56374;BME280;58212;47.034;7.376;2023-07-28T11:38:49;94961.34;;;25.41;48.34
56374;BME280;58212;47.034;7.376;2023-07-28T11:41:17;94953.59;;;25.52;47.62
56374;BME280;58212;47.034;7.376;2023-07-28T11:43:44;94950.19;;;25.55;47.24
56374;BME280;58212;47.034;7.376;2023-07-28T11:46:36;94953.59;;;25.76;46.72
56374;BME280;58212;47.034;7.376;2023-07-28T11:49:09;94958.03;;;25.36;47.14
56374;BME280;58212;47.034;7.376;2023-07-28T11:51:38;94958.56;;;25.62;47.15
56374;BME280;58212;47.034;7.376;2023-07-28T11:54:10;94956.09;;;25.81;46.83
56374;BME280;58212;47.034;7.376;2023-07-28T11:56:38;94950.78;;;25.85;46.37
56374;BME280;58212;47.034;7.376;2023-07-28T11:59:04;94941.53;;;25.73;47.11
56374;BME280;58212;47.034;7.376;2023-07-28T12:01:31;94944.34;;;25.53;46.91
56374;BME280;58212;47.034;7.376;2023-07-28T12:04:18;94937.34;;;25.52;46.67
56374;BME280;58212;47.034;7.376;2023-07-28T12:07:00;94930.38;;;25.30;46.11
56374;BME280;58212;47.034;7.376;2023-07-28T12:09:28;94938.78;;;25.49;46.24
56374;BME280;58212;47.034;7.376;2023-07-28T12:11:57;94921.06;;;25.52;47.09
56374;BME280;58212;47.034;7.376;2023-07-28T12:14:32;94926.44;;;25.27;47.46
56374;BME280;58212;47.034;7.376;2023-07-28T12:17:00;94925.81;;;25.55;47.34
56374;BME280;58212;47.034;7.376;2023-07-28T12:19:29;94931.91;;;25.52;46.47
56374;BME280;58212;47.034;7.376;2023-07-28T12:21:56;94927.28;;;25.52;46.61
56374;BME280;58212;47.034;7.376;2023-07-28T12:24:23;94929.75;;;25.57;46.23
56374;BME280;58212;47.034;7.376;2023-07-28T12:26:50;94927.16;;;25.49;46.22
56374;BME280;58212;47.034;7.376;2023-07-28T12:29:17;94929.84;;;25.49;46.67
56374;BME280;58212;47.034;7.376;2023-07-28T12:31:44;94921.66;;;25.82;45.95
56374;BME280;58212;47.034;7.376;2023-07-28T12:34:11;94922.00;;;25.56;45.72
56374;BME280;58212;47.034;7.376;2023-07-28T12:36:39;94913.97;;;25.71;46.70
56374;BME280;58212;47.034;7.376;2023-07-28T12:39:06;94917.00;;;25.94;46.25
56374;BME280;58212;47.034;7.376;2023-07-28T12:41:33;94913.75;;;25.76;44.64
56374;BME280;58212;47.034;7.376;2023-07-28T12:43:59;94914.50;;;26.13;44.69
56374;BME280;58212;47.034;7.376;2023-07-28T12:46:26;94914.66;;;25.93;44.83
56374;BME280;58212;47.034;7.376;2023-07-28T12:48:53;94913.63;;;25.97;44.11
56374;BME280;58212;47.034;7.376;2023-07-28T12:51:20;94908.19;;;26.21;43.98
56374;BME280;58212;47.034;7.376;2023-07-28T12:53:48;94909.41;;;26.36;44.70
56374;BME280;58212;47.034;7.376;2023-07-28T12:56:15;94891.53;;;26.35;43.13
56374;BME280;58212;47.034;7.376;2023-07-28T12:58:41;94882.56;;;26.47;40.94
56374;BME280;58212;47.034;7.376;2023-07-28T13:01:08;94881.84;;;26.90;40.69
56374;BME280;58212;47.034;7.376;2023-07-28T13:03:37;94880.31;;;27.36;40.56
56374;BME280;58212;47.034;7.376;2023-07-28T13:06:04;94875.53;;;27.60;40.97